sensor_id;sensor_type;location;lat;lon;timestamp;P1;durP1;ratioP1;P2;durP2;ratioP2
11539;SDS011;5826;54.756;9.192;2023-02-12T00:01:35;4.53;;;1.80;;
11539;SDS011;5826;54.756;9.192;2023-02-12T00:04:01;4.93;;;1.58;;
11539;SDS011;5826;54.756;9.192;2023-02-12T00:06:27;6.18;;;1.88;;
11539;SDS011;5826;54.756;9.192;2023-02-12T00:08:53;4.25;;;1.65;;
11539;SDS011;5826;54.756;9.192;2023-02-12T00:11:21;6.07;;;1.55;;
11539;SDS011;5826;54.756;9.192;2023-02-12T00:13:48;10.23;;;4.38;;
11539;SDS011;5826;54.756;9.192;2023-02-12T00:16:15;8.88;;;3.15;;
11539;SDS011;5826;54.756;9.192;2023-02-12T00:18:43;6.07;;;2.50;;
11539;SDS011;5826;54.756;9.192;2023-02-12T00:21:09;5.33;;;2.37;;
11539;SDS011;5826;54.756;9.192;2023-02-12T00:23:35;6.43;;;2.08;;
11539;SDS011;5826;54.756;9.192;2023-02-12T00:26:05;6.43;;;2.28;;
11539;SDS011;5826;54.756;9.192;2023-02-12T00:28:32;11.10;;;2.40;;
11539;SDS011;5826;54.756;9.192;2023-02-12T00:30:57;8.13;;;2.57;;
11539;SDS011;5826;54.756;9.192;2023-02-12T00:33:28;8.40;;;2.30;;
11539;SDS011;5826;54.756;9.192;2023-02-12T00:35:54;8.20;;;2.60;;
11539;SDS011;5826;54.756;9.192;2023-02-12T00:38:21;14.30;;;2.78;;
11539;SDS011;5826;54.756;9.192;2023-02-12T00:40:46;10.20;;;2.45;;
11539;SDS011;5826;54.756;9.192;2023-02-12T00:43:12;11.02;;;2.70;;
11539;SDS011;5826;54.756;9.192;2023-02-12T00:45:37;13.43;;;3.30;;
11539;SDS011;5826;54.756;9.192;2023-02-12T00:48:03;16.15;;;3.17;;
11539;SDS011;5826;54.756;9.192;2023-02-12T00:50:29;14.85;;;3.85;;
11539;SDS011;5826;54.756;9.192;2023-02-12T00:52:54;16.38;;;3.15;;
11539;SDS011;5826;54.756;9.192;2023-02-12T00:55:20;9.55;;;2.83;;
11539;SDS011;5826;54.756;9.192;2023-02-12T00:57:45;18.95;;;3.85;;
11539;SDS011;5826;54.756;9.192;2023-02-12T01:00:11;12.32;;;2.85;;
11539;SDS011;5826;54.756;9.192;2023-02-12T01:02:37;13.70;;;2.92;;
11539;SDS011;5826;54.756;9.192;2023-02-12T01:05:03;10.52;;;2.47;;
11539;SDS011;5826;54.756;9.192;2023-02-12T01:07:29;13.73;;;2.60;;
11539;SDS011;5826;54.756;9.192;2023-02-12T01:09:54;10.33;;;2.40;;
11539;SDS011;5826;54.756;9.192;2023-02-12T01:12:20;9.25;;;2.55;;
11539;SDS011;5826;54.756;9.192;2023-02-12T01:14:45;10.90;;;2.65;;
11539;SDS011;5826;54.756;9.192;2023-02-12T01:17:11;11.85;;;3.05;;
11539;SDS011;5826;54.756;9.192;2023-02-12T01:19:36;10.73;;;2.60;;
11539;SDS011;5826;54.756;9.192;2023-02-12T01:22:02;9.53;;;2.30;;
11539;SDS011;5826;54.756;9.192;2023-02-12T01:24:28;9.47;;;2.53;;
11539;SDS011;5826;54.756;9.192;2023-02-12T01:26:53;13.53;;;2.60;;
11539;SDS011;5826;54.756;9.192;2023-02-12T01:29:19;10.32;;;2.50;;
11539;SDS011;5826;54.756;9.192;2023-02-12T01:31:44;12.43;;;2.53;;
11539;SDS011;5826;54.756;9.192;2023-02-12T01:34:10;11.27;;;2.50;;
11539;SDS011;5826;54.756;9.192;2023-02-12T01:36:36;10.70;;;2.80;;
11539;SDS011;5826;54.756;9.192;2023-02-12T01:39:02;10.25;;;2.58;;
11539;SDS011;5826;54.756;9.192;2023-02-12T01:41:34;9.20;;;2.40;;
11539;SDS011;5826;54.756;9.192;2023-02-12T01:44:45;9.15;;;2.08;;
11539;SDS011;5826;54.756;9.192;2023-02-12T01:46:58;6.47;;;2.00;;
11539;SDS011;5826;54.756;9.192;2023-02-12T01:49:26;9.38;;;2.00;;
11539;SDS011;5826;54.756;9.192;2023-02-12T01:52:01;13.57;;;2.53;;
11539;SDS011;5826;54.756;9.192;2023-02-12T01:54:47;8.40;;;2.20;;
11539;SDS011;5826;54.756;9.192;2023-02-12T01:57:14;7.82;;;2.10;;
11539;SDS011;5826;54.756;9.192;2023-02-12T01:59:42;9.50;;;2.35;;
11539;SDS011;5826;54.756;9.192;2023-02-12T02:02:08;9.43;;;2.30;;
11539;SDS011;5826;54.756;9.192;2023-02-12T02:04:42;8.95;;;2.05;;
11539;SDS011;5826;54.756;9.192;2023-02-12T02:07:14;10.43;;;2.63;;
11539;SDS011;5826;54.756;9.192;2023-02-12T02:09:40;8.00;;;2.17;;
11539;SDS011;5826;54.756;9.192;2023-02-12T02:12:07;8.68;;;2.10;;
11539;SDS011;5826;54.756;9.192;2023-02-12T02:14:51;9.30;;;2.20;;
11539;SDS011;5826;54.756;9.192;2023-02-12T02:28:32;9.73;;;2.13;;
11539;SDS011;5826;54.756;9.192;2023-02-12T02:31:32;9.77;;;2.25;;
11539;SDS011;5826;54.756;9.192;2023-02-12T02:34:27;9.43;;;2.15;;
11539;SDS011;5826;54.756;9.192;2023-02-12T02:40:13;9.60;;;2.50;;
11539;SDS011;5826;54.756;9.192;2023-02-12T02:42:45;8.87;;;2.13;;
11539;SDS011;5826;54.756;9.192;2023-02-12T02:45:26;11.75;;;2.38;;
11539;SDS011;5826;54.756;9.192;2023-02-12T02:48:07;12.27;;;2.17;;
11539;SDS011;5826;54.756;9.192;2023-02-12T02:50:40;8.85;;;2.20;;
11539;SDS011;5826;54.756;9.192;2023-02-12T02:53:12;6.63;;;1.80;;
11539;SDS011;5826;54.756;9.192;2023-02-12T02:55:44;9.77;;;2.10;;
11539;SDS011;5826;54.756;9.192;2023-02-12T03:00:47;5.97;;;2.10;;
11539;SDS011;5826;54.756;9.192;2023-02-12T03:03:32;7.07;;;1.97;;
11539;SDS011;5826;54.756;9.192;2023-02-12T03:06:04;9.77;;;2.30;;
11539;SDS011;5826;54.756;9.192;2023-02-12T03:08:39;6.43;;;1.80;;
11539;SDS011;5826;54.756;9.192;2023-02-12T03:11:12;7.97;;;1.97;;
11539;SDS011;5826;54.756;9.192;2023-02-12T03:13:47;4.93;;;1.67;;
11539;SDS011;5826;54.756;9.192;2023-02-12T03:16:17;7.38;;;2.05;;
11539;SDS011;5826;54.756;9.192;2023-02-12T03:18:54;7.20;;;1.73;;
11539;SDS011;5826;54.756;9.192;2023-02-12T03:21:31;7.50;;;1.70;;
11539;SDS011;5826;54.756;9.192;2023-02-12T03:26:52;4.67;;;1.73;;
11539;SDS011;5826;54.756;9.192;2023-02-12T03:29:21;5.97;;;1.60;;
11539;SDS011;5826;54.756;9.192;2023-02-12T03:34:48;8.67;;;2.50;;
11539;SDS011;5826;54.756;9.192;2023-02-12T03:37:32;8.85;;;2.17;;
11539;SDS011;5826;54.756;9.192;2023-02-12T03:42:39;4.93;;;1.70;;
11539;SDS011;5826;54.756;9.192;2023-02-12T03:45:18;8.13;;;1.97;;
11539;SDS011;5826;54.756;9.192;2023-02-12T03:50:47;9.67;;;2.30;;
11539;SDS011;5826;54.756;9.192;2023-02-12T03:53:15;5.50;;;1.63;;
11539;SDS011;5826;54.756;9.192;2023-02-12T03:55:41;9.13;;;2.40;;
11539;SDS011;5826;54.756;9.192;2023-02-12T03:58:10;9.17;;;2.20;;
11539;SDS011;5826;54.756;9.192;2023-02-12T04:00:40;6.35;;;1.83;;
11539;SDS011;5826;54.756;9.192;2023-02-12T04:03:06;7.20;;;1.83;;
11539;SDS011;5826;54.756;9.192;2023-02-12T04:05:32;5.85;;;1.88;;
11539;SDS011;5826;54.756;9.192;2023-02-12T04:07:57;7.22;;;1.98;;
11539;SDS011;5826;54.756;9.192;2023-02-12T04:10:28;5.57;;;1.70;;
11539;SDS011;5826;54.756;9.192;2023-02-12T04:18:38;8.63;;;1.83;;
11539;SDS011;5826;54.756;9.192;2023-02-12T04:21:07;11.27;;;2.20;;
11539;SDS011;5826;54.756;9.192;2023-02-12T04:24:05;4.63;;;1.50;;
11539;SDS011;5826;54.756;9.192;2023-02-12T04:26:50;7.60;;;1.60;;
11539;SDS011;5826;54.756;9.192;2023-02-12T04:29:39;4.55;;;1.58;;
11539;SDS011;5826;54.756;9.192;2023-02-12T04:32:21;6.47;;;1.55;;
11539;SDS011;5826;54.756;9.192;2023-02-12T04:35:14;5.47;;;1.52;;
11539;SDS011;5826;54.756;9.192;2023-02-12T04:40:18;4.50;;;1.50;;
11539;SDS011;5826;54.756;9.192;2023-02-12T04:42:47;6.40;;;1.70;;
11539;SDS011;5826;54.756;9.192;2023-02-12T04:45:48;5.53;;;1.53;;
11539;SDS011;5826;54.756;9.192;2023-02-12T04:48:06;6.43;;;1.73;;
11539;SDS011;5826;54.756;9.192;2023-02-12T04:50:39;4.77;;;1.90;;
11539;SDS011;5826;54.756;9.192;2023-02-12T04:53:06;5.97;;;1.50;;
11539;SDS011;5826;54.756;9.192;2023-02-12T04:55:31;7.03;;;1.80;;
11539;SDS011;5826;54.756;9.192;2023-02-12T04:57:57;7.55;;;2.00;;
11539;SDS011;5826;54.756;9.192;2023-02-12T05:00:22;7.90;;;1.92;;
11539;SDS011;5826;54.756;9.192;2023-02-12T05:02:48;5.97;;;1.77;;
11539;SDS011;5826;54.756;9.192;2023-02-12T05:05:14;6.10;;;1.97;;
11539;SDS011;5826;54.756;9.192;2023-02-12T05:07:39;6.03;;;1.67;;
11539;SDS011;5826;54.756;9.192;2023-02-12T05:10:05;5.77;;;1.90;;
11539;SDS011;5826;54.756;9.192;2023-02-12T05:12:31;5.07;;;1.80;;
11539;SDS011;5826;54.756;9.192;2023-02-12T05:14:57;6.93;;;1.65;;
11539;SDS011;5826;54.756;9.192;2023-02-12T05:17:22;4.13;;;1.43;;
11539;SDS011;5826;54.756;9.192;2023-02-12T05:19:48;8.07;;;1.60;;
11539;SDS011;5826;54.756;9.192;2023-02-12T05:22:14;7.93;;;2.23;;
11539;SDS011;5826;54.756;9.192;2023-02-12T05:24:40;8.07;;;1.90;;
11539;SDS011;5826;54.756;9.192;2023-02-12T05:27:05;8.82;;;2.45;;
11539;SDS011;5826;54.756;9.192;2023-02-12T05:29:32;8.70;;;1.88;;
11539;SDS011;5826;54.756;9.192;2023-02-12T05:31:58;5.22;;;1.77;;
11539;SDS011;5826;54.756;9.192;2023-02-12T05:34:24;7.27;;;1.90;;
11539;SDS011;5826;54.756;9.192;2023-02-12T05:36:49;7.93;;;2.60;;
11539;SDS011;5826;54.756;9.192;2023-02-12T05:39:15;6.67;;;2.20;;
11539;SDS011;5826;54.756;9.192;2023-02-12T05:41:41;7.20;;;2.10;;
11539;SDS011;5826;54.756;9.192;2023-02-12T05:44:06;8.80;;;2.08;;
11539;SDS011;5826;54.756;9.192;2023-02-12T05:46:32;6.35;;;2.03;;
11539;SDS011;5826;54.756;9.192;2023-02-12T05:48:58;9.88;;;3.30;;
11539;SDS011;5826;54.756;9.192;2023-02-12T05:51:24;8.38;;;2.83;;
11539;SDS011;5826;54.756;9.192;2023-02-12T05:53:52;7.37;;;2.40;;
11539;SDS011;5826;54.756;9.192;2023-02-12T05:56:22;8.05;;;2.42;;
11539;SDS011;5826;54.756;9.192;2023-02-12T05:58:57;5.03;;;2.20;;
11539;SDS011;5826;54.756;9.192;2023-02-12T06:01:46;6.27;;;2.67;;
11539;SDS011;5826;54.756;9.192;2023-02-12T06:04:13;6.22;;;2.65;;
11539;SDS011;5826;54.756;9.192;2023-02-12T06:06:43;6.25;;;2.40;;
11539;SDS011;5826;54.756;9.192;2023-02-12T06:09:10;6.50;;;2.10;;
11539;SDS011;5826;54.756;9.192;2023-02-12T06:11:36;7.10;;;2.43;;
11539;SDS011;5826;54.756;9.192;2023-02-12T06:14:04;6.07;;;2.10;;
11539;SDS011;5826;54.756;9.192;2023-02-12T06:16:30;5.90;;;1.87;;
11539;SDS011;5826;54.756;9.192;2023-02-12T06:18:56;6.03;;;1.90;;
11539;SDS011;5826;54.756;9.192;2023-02-12T06:21:23;5.50;;;1.83;;
11539;SDS011;5826;54.756;9.192;2023-02-12T06:23:50;5.83;;;2.20;;
11539;SDS011;5826;54.756;9.192;2023-02-12T06:26:17;7.43;;;2.00;;
11539;SDS011;5826;54.756;9.192;2023-02-12T06:28:43;8.40;;;2.00;;
11539;SDS011;5826;54.756;9.192;2023-02-12T06:31:28;7.43;;;2.13;;
11539;SDS011;5826;54.756;9.192;2023-02-12T06:33:59;8.83;;;2.20;;
11539;SDS011;5826;54.756;9.192;2023-02-12T06:36:28;8.40;;;2.00;;
11539;SDS011;5826;54.756;9.192;2023-02-12T06:38:53;7.50;;;2.03;;
11539;SDS011;5826;54.756;9.192;2023-02-12T06:41:20;10.53;;;2.20;;
11539;SDS011;5826;54.756;9.192;2023-02-12T06:43:46;11.00;;;2.60;;
11539;SDS011;5826;54.756;9.192;2023-02-12T06:46:12;11.07;;;2.50;;
11539;SDS011;5826;54.756;9.192;2023-02-12T06:48:38;11.83;;;2.97;;
11539;SDS011;5826;54.756;9.192;2023-02-12T06:51:04;10.63;;;2.30;;
11539;SDS011;5826;54.756;9.192;2023-02-12T06:53:33;10.90;;;2.40;;
11539;SDS011;5826;54.756;9.192;2023-02-12T06:56:03;8.70;;;2.33;;
11539;SDS011;5826;54.756;9.192;2023-02-12T06:58:30;6.27;;;2.20;;
11539;SDS011;5826;54.756;9.192;2023-02-12T07:00:55;7.47;;;2.00;;
11539;SDS011;5826;54.756;9.192;2023-02-12T07:03:21;9.87;;;2.40;;
11539;SDS011;5826;54.756;9.192;2023-02-12T07:05:46;14.77;;;3.55;;
11539;SDS011;5826;54.756;9.192;2023-02-12T07:08:13;10.10;;;2.30;;
11539;SDS011;5826;54.756;9.192;2023-02-12T07:10:39;11.10;;;2.50;;
11539;SDS011;5826;54.756;9.192;2023-02-12T07:13:05;8.57;;;2.37;;
11539;SDS011;5826;54.756;9.192;2023-02-12T07:15:30;8.87;;;2.20;;
11539;SDS011;5826;54.756;9.192;2023-02-12T07:17:56;9.40;;;2.40;;
11539;SDS011;5826;54.756;9.192;2023-02-12T07:20:21;9.67;;;2.83;;
11539;SDS011;5826;54.756;9.192;2023-02-12T07:22:47;6.70;;;1.90;;
11539;SDS011;5826;54.756;9.192;2023-02-12T07:25:12;5.70;;;2.00;;
11539;SDS011;5826;54.756;9.192;2023-02-12T07:27:38;10.50;;;2.70;;
11539;SDS011;5826;54.756;9.192;2023-02-12T07:30:04;9.35;;;2.80;;
11539;SDS011;5826;54.756;9.192;2023-02-12T07:32:31;6.33;;;2.27;;
11539;SDS011;5826;54.756;9.192;2023-02-12T07:34:57;8.43;;;2.10;;
11539;SDS011;5826;54.756;9.192;2023-02-12T07:37:23;6.70;;;2.00;;
11539;SDS011;5826;54.756;9.192;2023-02-12T07:39:49;9.53;;;3.50;;
11539;SDS011;5826;54.756;9.192;2023-02-12T07:42:15;16.33;;;8.23;;
11539;SDS011;5826;54.756;9.192;2023-02-12T07:44:41;9.53;;;4.93;;
11539;SDS011;5826;54.756;9.192;2023-02-12T07:47:07;10.55;;;6.55;;
11539;SDS011;5826;54.756;9.192;2023-02-12T07:49:32;11.57;;;5.50;;
11539;SDS011;5826;54.756;9.192;2023-02-12T07:51:58;8.10;;;4.20;;
11539;SDS011;5826;54.756;9.192;2023-02-12T07:54:24;7.27;;;3.83;;
11539;SDS011;5826;54.756;9.192;2023-02-12T07:56:49;8.33;;;3.90;;
11539;SDS011;5826;54.756;9.192;2023-02-12T07:59:16;8.57;;;3.30;;
11539;SDS011;5826;54.756;9.192;2023-02-12T08:01:46;9.20;;;3.10;;
11539;SDS011;5826;54.756;9.192;2023-02-12T08:04:14;9.60;;;3.07;;
11539;SDS011;5826;54.756;9.192;2023-02-12T08:06:42;5.73;;;2.47;;
11539;SDS011;5826;54.756;9.192;2023-02-12T08:09:11;7.67;;;2.63;;
11539;SDS011;5826;54.756;9.192;2023-02-12T08:11:38;6.33;;;2.43;;
11539;SDS011;5826;54.756;9.192;2023-02-12T08:14:05;4.93;;;2.37;;
11539;SDS011;5826;54.756;9.192;2023-02-12T08:16:31;13.17;;;2.87;;
11539;SDS011;5826;54.756;9.192;2023-02-12T08:19:01;5.13;;;2.20;;
11539;SDS011;5826;54.756;9.192;2023-02-12T08:21:26;4.57;;;1.87;;
11539;SDS011;5826;54.756;9.192;2023-02-12T08:23:53;8.43;;;2.07;;
11539;SDS011;5826;54.756;9.192;2023-02-12T08:26:21;8.97;;;2.50;;
11539;SDS011;5826;54.756;9.192;2023-02-12T08:28:57;5.43;;;2.50;;
11539;SDS011;5826;54.756;9.192;2023-02-12T08:31:29;7.27;;;2.23;;
11539;SDS011;5826;54.756;9.192;2023-02-12T08:33:58;5.70;;;2.30;;
11539;SDS011;5826;54.756;9.192;2023-02-12T08:36:25;3.67;;;2.03;;
11539;SDS011;5826;54.756;9.192;2023-02-12T08:38:52;5.07;;;2.00;;
11539;SDS011;5826;54.756;9.192;2023-02-12T08:41:22;2.63;;;1.67;;
11539;SDS011;5826;54.756;9.192;2023-02-12T08:43:49;3.45;;;2.03;;
11539;SDS011;5826;54.756;9.192;2023-02-12T08:46:20;3.20;;;1.70;;
11539;SDS011;5826;54.756;9.192;2023-02-12T08:48:47;3.80;;;2.20;;
11539;SDS011;5826;54.756;9.192;2023-02-12T08:51:22;3.25;;;1.60;;
11539;SDS011;5826;54.756;9.192;2023-02-12T08:53:50;3.43;;;1.87;;
11539;SDS011;5826;54.756;9.192;2023-02-12T08:56:17;3.93;;;2.53;;
11539;SDS011;5826;54.756;9.192;2023-02-12T08:58:44;4.07;;;2.67;;
11539;SDS011;5826;54.756;9.192;2023-02-12T09:01:11;4.70;;;2.50;;
11539;SDS011;5826;54.756;9.192;2023-02-12T09:03:42;2.97;;;2.30;;
11539;SDS011;5826;54.756;9.192;2023-02-12T09:06:08;3.45;;;2.30;;
11539;SDS011;5826;54.756;9.192;2023-02-12T09:08:35;2.53;;;2.17;;
11539;SDS011;5826;54.756;9.192;2023-02-12T09:11:08;2.85;;;2.00;;
11539;SDS011;5826;54.756;9.192;2023-02-12T09:13:37;2.20;;;1.73;;
11539;SDS011;5826;54.756;9.192;2023-02-12T09:16:04;1.77;;;1.50;;
11539;SDS011;5826;54.756;9.192;2023-02-12T09:18:30;3.07;;;2.57;;
11539;SDS011;5826;54.756;9.192;2023-02-12T09:21:00;2.00;;;1.80;;
11539;SDS011;5826;54.756;9.192;2023-02-12T09:23:27;2.10;;;1.77;;
11539;SDS011;5826;54.756;9.192;2023-02-12T09:25:52;2.07;;;1.83;;
11539;SDS011;5826;54.756;9.192;2023-02-12T09:28:18;3.00;;;2.67;;
11539;SDS011;5826;54.756;9.192;2023-02-12T09:30:43;2.60;;;2.10;;
11539;SDS011;5826;54.756;9.192;2023-02-12T09:33:09;2.08;;;1.80;;
11539;SDS011;5826;54.756;9.192;2023-02-12T09:35:36;1.70;;;1.50;;
11539;SDS011;5826;54.756;9.192;2023-02-12T09:38:03;2.20;;;1.90;;
11539;SDS011;5826;54.756;9.192;2023-02-12T09:40:32;2.15;;;1.85;;
11539;SDS011;5826;54.756;9.192;2023-02-12T09:43:10;1.70;;;1.60;;
11539;SDS011;5826;54.756;9.192;2023-02-12T09:45:46;2.00;;;1.73;;
11539;SDS011;5826;54.756;9.192;2023-02-12T09:51:32;1.95;;;1.75;;
11539;SDS011;5826;54.756;9.192;2023-02-12T09:54:00;2.40;;;1.60;;
11539;SDS011;5826;54.756;9.192;2023-02-12T09:56:29;1.77;;;1.63;;
11539;SDS011;5826;54.756;9.192;2023-02-12T09:58:57;2.53;;;1.65;;
11539;SDS011;5826;54.756;9.192;2023-02-12T10:01:25;2.45;;;1.60;;
11539;SDS011;5826;54.756;9.192;2023-02-12T10:03:52;2.53;;;1.50;;
11539;SDS011;5826;54.756;9.192;2023-02-12T10:06:19;1.98;;;1.50;;
11539;SDS011;5826;54.756;9.192;2023-02-12T10:08:53;1.45;;;1.20;;
11539;SDS011;5826;54.756;9.192;2023-02-12T10:12:12;2.00;;;1.70;;
11539;SDS011;5826;54.756;9.192;2023-02-12T10:17:21;1.60;;;1.23;;
11539;SDS011;5826;54.756;9.192;2023-02-12T10:22:47;1.35;;;0.90;;
11539;SDS011;5826;54.756;9.192;2023-02-12T10:27:53;0.80;;;0.70;;
11539;SDS011;5826;54.756;9.192;2023-02-12T10:30:39;0.85;;;0.75;;
11539;SDS011;5826;54.756;9.192;2023-02-12T10:33:13;1.30;;;1.20;;
11539;SDS011;5826;54.756;9.192;2023-02-12T10:35:43;1.33;;;1.10;;
11539;SDS011;5826;54.756;9.192;2023-02-12T10:38:21;1.00;;;0.90;;
11539;SDS011;5826;54.756;9.192;2023-02-12T10:40:53;1.30;;;1.00;;
11539;SDS011;5826;54.756;9.192;2023-02-12T10:43:21;2.08;;;1.10;;
11539;SDS011;5826;54.756;9.192;2023-02-12T10:45:48;1.02;;;0.93;;
11539;SDS011;5826;54.756;9.192;2023-02-12T10:48:21;1.73;;;1.35;;
11539;SDS011;5826;54.756;9.192;2023-02-12T10:53:41;1.52;;;1.10;;
11539;SDS011;5826;54.756;9.192;2023-02-12T10:58:54;2.10;;;1.42;;
11539;SDS011;5826;54.756;9.192;2023-02-12T11:01:27;1.83;;;1.48;;
11539;SDS011;5826;54.756;9.192;2023-02-12T11:09:36;2.83;;;1.80;;
11539;SDS011;5826;54.756;9.192;2023-02-12T11:15:06;2.85;;;2.25;;
11539;SDS011;5826;54.756;9.192;2023-02-12T11:17:40;2.38;;;1.95;;
11539;SDS011;5826;54.756;9.192;2023-02-12T11:22:52;1.90;;;1.70;;
11539;SDS011;5826;54.756;9.192;2023-02-12T11:25:27;3.67;;;2.67;;
11539;SDS011;5826;54.756;9.192;2023-02-12T11:28:13;3.10;;;2.80;;
11539;SDS011;5826;54.756;9.192;2023-02-12T11:30:57;4.35;;;3.15;;
11539;SDS011;5826;54.756;9.192;2023-02-12T11:33:34;2.35;;;2.08;;
11539;SDS011;5826;54.756;9.192;2023-02-12T11:36:22;2.25;;;1.98;;
11539;SDS011;5826;54.756;9.192;2023-02-12T11:38:52;6.38;;;5.13;;
11539;SDS011;5826;54.756;9.192;2023-02-12T11:43:54;3.58;;;2.90;;
11539;SDS011;5826;54.756;9.192;2023-02-12T11:46:21;2.78;;;2.35;;
11539;SDS011;5826;54.756;9.192;2023-02-12T11:48:50;2.30;;;2.10;;
11539;SDS011;5826;54.756;9.192;2023-02-12T11:51:21;2.08;;;1.40;;
11539;SDS011;5826;54.756;9.192;2023-02-12T11:53:50;1.50;;;1.38;;
11539;SDS011;5826;54.756;9.192;2023-02-12T11:56:18;1.38;;;1.13;;
11539;SDS011;5826;54.756;9.192;2023-02-12T11:58:48;1.45;;;1.20;;
11539;SDS011;5826;54.756;9.192;2023-02-12T12:01:29;1.63;;;1.10;;
11539;SDS011;5826;54.756;9.192;2023-02-12T12:06:35;1.58;;;0.93;;
11539;SDS011;5826;54.756;9.192;2023-02-12T12:09:19;1.80;;;1.55;;
11539;SDS011;5826;54.756;9.192;2023-02-12T12:12:02;7.03;;;3.67;;
11539;SDS011;5826;54.756;9.192;2023-02-12T12:14:49;4.97;;;2.70;;
11539;SDS011;5826;54.756;9.192;2023-02-12T12:17:43;3.67;;;2.45;;
11539;SDS011;5826;54.756;9.192;2023-02-12T12:20:31;2.10;;;1.40;;
11539;SDS011;5826;54.756;9.192;2023-02-12T12:23:10;1.38;;;1.10;;
11539;SDS011;5826;54.756;9.192;2023-02-12T12:25:43;1.40;;;1.30;;
11539;SDS011;5826;54.756;9.192;2023-02-12T12:28:31;1.50;;;1.40;;
11539;SDS011;5826;54.756;9.192;2023-02-12T12:32:15;1.00;;;0.90;;
11539;SDS011;5826;54.756;9.192;2023-02-12T12:34:16;1.38;;;1.10;;
11539;SDS011;5826;54.756;9.192;2023-02-12T12:42:38;0.98;;;0.80;;
11539;SDS011;5826;54.756;9.192;2023-02-12T12:45:41;1.33;;;1.00;;
11539;SDS011;5826;54.756;9.192;2023-02-12T12:48:24;1.55;;;1.10;;
11539;SDS011;5826;54.756;9.192;2023-02-12T12:51:04;1.20;;;1.10;;
11539;SDS011;5826;54.756;9.192;2023-02-12T12:54:01;1.10;;;1.00;;
11539;SDS011;5826;54.756;9.192;2023-02-12T12:56:43;1.10;;;1.00;;
11539;SDS011;5826;54.756;9.192;2023-02-12T13:05:13;3.58;;;3.10;;
11539;SDS011;5826;54.756;9.192;2023-02-12T13:08:20;3.30;;;2.70;;
11539;SDS011;5826;54.756;9.192;2023-02-12T13:11:16;3.88;;;3.47;;
11539;SDS011;5826;54.756;9.192;2023-02-12T13:13:56;3.78;;;3.35;;
11539;SDS011;5826;54.756;9.192;2023-02-12T13:16:44;3.20;;;2.90;;
11539;SDS011;5826;54.756;9.192;2023-02-12T13:19:28;2.35;;;2.15;;
11539;SDS011;5826;54.756;9.192;2023-02-12T13:22:09;3.10;;;2.78;;
11539;SDS011;5826;54.756;9.192;2023-02-12T13:27:15;3.33;;;2.90;;
11539;SDS011;5826;54.756;9.192;2023-02-12T13:30:06;4.20;;;3.80;;
11539;SDS011;5826;54.756;9.192;2023-02-12T13:32:40;3.95;;;3.55;;
11539;SDS011;5826;54.756;9.192;2023-02-12T13:35:14;3.58;;;3.10;;
11539;SDS011;5826;54.756;9.192;2023-02-12T13:37:44;8.18;;;6.22;;
11539;SDS011;5826;54.756;9.192;2023-02-12T13:40:14;6.63;;;5.40;;
11539;SDS011;5826;54.756;9.192;2023-02-12T13:42:46;6.57;;;5.25;;
11539;SDS011;5826;54.756;9.192;2023-02-12T13:48:38;7.47;;;6.13;;
11539;SDS011;5826;54.756;9.192;2023-02-12T13:56:53;4.25;;;3.65;;
11539;SDS011;5826;54.756;9.192;2023-02-12T14:01:59;5.63;;;3.60;;
11539;SDS011;5826;54.756;9.192;2023-02-12T14:04:27;3.25;;;2.95;;
11539;SDS011;5826;54.756;9.192;2023-02-12T14:12:09;5.72;;;2.63;;
11539;SDS011;5826;54.756;9.192;2023-02-12T14:14:42;4.38;;;2.83;;
11539;SDS011;5826;54.756;9.192;2023-02-12T14:19:54;4.18;;;3.20;;
11539;SDS011;5826;54.756;9.192;2023-02-12T14:27:43;3.10;;;2.47;;
11539;SDS011;5826;54.756;9.192;2023-02-12T14:37:54;5.22;;;3.03;;
11539;SDS011;5826;54.756;9.192;2023-02-12T14:42:59;2.95;;;2.25;;
11539;SDS011;5826;54.756;9.192;2023-02-12T14:45:27;3.30;;;2.35;;
11539;SDS011;5826;54.756;9.192;2023-02-12T14:47:58;6.05;;;2.67;;
11539;SDS011;5826;54.756;9.192;2023-02-12T14:50:25;4.55;;;2.42;;
11539;SDS011;5826;54.756;9.192;2023-02-12T14:53:19;4.05;;;2.40;;
11539;SDS011;5826;54.756;9.192;2023-02-12T14:55:50;4.18;;;2.10;;
11539;SDS011;5826;54.756;9.192;2023-02-12T14:58:18;3.88;;;2.22;;
11539;SDS011;5826;54.756;9.192;2023-02-12T15:00:46;6.18;;;2.70;;
11539;SDS011;5826;54.756;9.192;2023-02-12T15:03:17;3.60;;;2.60;;
11539;SDS011;5826;54.756;9.192;2023-02-12T15:06:00;5.80;;;3.08;;
11539;SDS011;5826;54.756;9.192;2023-02-12T15:08:52;5.72;;;3.40;;
11539;SDS011;5826;54.756;9.192;2023-02-12T15:17:01;3.13;;;2.55;;
11539;SDS011;5826;54.756;9.192;2023-02-12T15:19:33;7.10;;;3.47;;
11539;SDS011;5826;54.756;9.192;2023-02-12T15:22:15;4.68;;;3.33;;
11539;SDS011;5826;54.756;9.192;2023-02-12T15:24:44;4.55;;;2.80;;
11539;SDS011;5826;54.756;9.192;2023-02-12T15:27:10;5.82;;;3.10;;
11539;SDS011;5826;54.756;9.192;2023-02-12T15:29:43;3.78;;;2.90;;
11539;SDS011;5826;54.756;9.192;2023-02-12T15:32:23;4.82;;;2.83;;
11539;SDS011;5826;54.756;9.192;2023-02-12T15:34:51;7.15;;;4.20;;
11539;SDS011;5826;54.756;9.192;2023-02-12T15:37:20;6.13;;;4.18;;
11539;SDS011;5826;54.756;9.192;2023-02-12T15:39:48;6.90;;;3.90;;
11539;SDS011;5826;54.756;9.192;2023-02-12T15:42:30;8.82;;;4.63;;
11539;SDS011;5826;54.756;9.192;2023-02-12T15:47:40;6.20;;;3.83;;
11539;SDS011;5826;54.756;9.192;2023-02-12T15:50:16;9.32;;;5.40;;
11539;SDS011;5826;54.756;9.192;2023-02-12T15:52:42;8.02;;;4.95;;
11539;SDS011;5826;54.756;9.192;2023-02-12T15:55:14;6.18;;;4.20;;
11539;SDS011;5826;54.756;9.192;2023-02-12T15:57:43;8.30;;;4.47;;
11539;SDS011;5826;54.756;9.192;2023-02-12T16:00:21;6.45;;;3.45;;
11539;SDS011;5826;54.756;9.192;2023-02-12T16:02:52;5.32;;;3.42;;
11539;SDS011;5826;54.756;9.192;2023-02-12T16:05:17;9.88;;;5.60;;
11539;SDS011;5826;54.756;9.192;2023-02-12T16:07:43;6.80;;;4.25;;
11539;SDS011;5826;54.756;9.192;2023-02-12T16:10:13;6.72;;;3.88;;
11539;SDS011;5826;54.756;9.192;2023-02-12T16:12:40;6.05;;;3.63;;
11539;SDS011;5826;54.756;9.192;2023-02-12T16:15:06;8.48;;;4.30;;
11539;SDS011;5826;54.756;9.192;2023-02-12T16:17:46;7.03;;;4.32;;
11539;SDS011;5826;54.756;9.192;2023-02-12T16:22:43;8.60;;;4.70;;
11539;SDS011;5826;54.756;9.192;2023-02-12T16:25:14;6.70;;;4.20;;
11539;SDS011;5826;54.756;9.192;2023-02-12T16:27:40;7.95;;;4.45;;
11539;SDS011;5826;54.756;9.192;2023-02-12T16:30:24;8.07;;;4.18;;
11539;SDS011;5826;54.756;9.192;2023-02-12T16:33:03;10.63;;;5.07;;
11539;SDS011;5826;54.756;9.192;2023-02-12T16:35:30;6.50;;;4.10;;
11539;SDS011;5826;54.756;9.192;2023-02-12T16:38:43;5.57;;;3.35;;
11539;SDS011;5826;54.756;9.192;2023-02-12T16:43:42;5.90;;;3.50;;
11539;SDS011;5826;54.756;9.192;2023-02-12T16:46:09;5.80;;;3.05;;
11539;SDS011;5826;54.756;9.192;2023-02-12T16:48:40;5.72;;;3.28;;
11539;SDS011;5826;54.756;9.192;2023-02-12T16:51:22;5.18;;;3.05;;
11539;SDS011;5826;54.756;9.192;2023-02-12T16:53:48;5.30;;;3.22;;
11539;SDS011;5826;54.756;9.192;2023-02-12T16:56:19;8.60;;;3.90;;
11539;SDS011;5826;54.756;9.192;2023-02-12T16:58:47;5.53;;;3.30;;
11539;SDS011;5826;54.756;9.192;2023-02-12T17:01:15;6.03;;;3.17;;
11539;SDS011;5826;54.756;9.192;2023-02-12T17:03:43;7.47;;;5.50;;
11539;SDS011;5826;54.756;9.192;2023-02-12T17:06:11;8.40;;;4.80;;
11539;SDS011;5826;54.756;9.192;2023-02-12T17:08:38;5.82;;;4.03;;
11539;SDS011;5826;54.756;9.192;2023-02-12T17:11:03;7.28;;;4.03;;
11539;SDS011;5826;54.756;9.192;2023-02-12T17:13:29;6.35;;;3.90;;
11539;SDS011;5826;54.756;9.192;2023-02-12T17:15:56;6.82;;;3.42;;
11539;SDS011;5826;54.756;9.192;2023-02-12T17:18:23;6.10;;;4.15;;
11539;SDS011;5826;54.756;9.192;2023-02-12T17:20:58;7.05;;;3.97;;
11539;SDS011;5826;54.756;9.192;2023-02-12T17:23:27;5.15;;;3.70;;
11539;SDS011;5826;54.756;9.192;2023-02-12T17:25:53;6.72;;;3.75;;
11539;SDS011;5826;54.756;9.192;2023-02-12T17:28:18;5.35;;;3.40;;
11539;SDS011;5826;54.756;9.192;2023-02-12T17:30:45;3.97;;;3.15;;
11539;SDS011;5826;54.756;9.192;2023-02-12T17:33:10;5.15;;;2.85;;
11539;SDS011;5826;54.756;9.192;2023-02-12T17:35:36;4.45;;;2.80;;
11539;SDS011;5826;54.756;9.192;2023-02-12T17:38:02;5.22;;;2.78;;